Time;durP1;ratioP1;P1;durP2;ratioP2;P2;SDS_P1;SDS_P2;PMS_P1;PMS_P2;Temp;Humidity;BMP_temperature;BMP_pressure;BME280_temperature;BME280_humidity;BME280_pressure;Samples;Min_cycle;Max_cycle;Signal;HPM_P1;HPM_P2
2022/09/17 00:01:23;;;;;;;13.80;1.83;;;;;;;10.32;87.10;101354.19;5075692;28;20045;-72
2022/09/17 00:03:57;;;;;;;9.70;1.80;;;;;;;10.30;87.04;101353.88;5056773;28;20049;-72
2022/09/17 00:06:25;;;;;;;10.73;1.77;;;;;;;10.27;87.15;101357.38;5075233;28;20048;-72
2022/09/17 00:08:52;;;;;;;6.50;1.58;;;;;;;10.26;87.75;101353.22;5075040;28;20051;-72
2022/09/17 00:11:30;;;;;;;9.82;1.95;;;;;;;10.25;87.57;101367.69;5075527;28;20045;-72
2022/09/17 00:13:59;;;;;;;7.25;1.55;;;;;;;10.26;87.80;101368.44;5075187;28;20041;-72
2022/09/17 00:16:41;;;;;;;6.57;2.25;;;;;;;10.26;87.95;101371.09;5075107;28;20052;-72
2022/09/17 00:19:11;;;;;;;;;;;;;;;10.27;87.45;101373.34;5075832;28;20076;-72
2022/09/17 00:21:40;;;;;;;7.22;1.50;;;;;;;10.27;87.86;101370.69;5074621;28;20385;-72
2022/09/17 00:24:07;;;;;;;6.47;1.63;;;;;;;10.27;87.77;101373.34;5074885;28;20041;-73
2022/09/17 00:26:35;;;;;;;8.30;2.05;;;;;;;10.25;87.85;101370.34;5074869;28;20049;-73
2022/09/17 00:29:03;;;;;;;13.10;2.10;;;;;;;10.24;87.72;101379.50;5074743;28;20067;-73
2022/09/17 00:31:30;;;;;;;5.70;1.48;;;;;;;10.22;87.95;101373.09;5075019;28;20051;-73
2022/09/17 00:33:58;;;;;;;8.93;1.80;;;;;;;10.21;88.14;101377.69;5074562;28;20124;-73
2022/09/17 00:36:25;;;;;;;13.85;2.15;;;;;;;10.19;87.98;101382.69;5056742;28;20047;-73
2022/09/17 00:38:54;;;;;;;8.90;1.90;;;;;;;10.18;88.19;101383.81;5056399;28;20049;-73
2022/09/17 00:41:22;;;;;;;6.72;1.48;;;;;;;10.18;88.28;101391.78;5074203;28;20057;-73
2022/09/17 00:43:52;;;;;;;3.28;1.23;;;;;;;10.16;88.05;101388.81;5073216;28;20088;-73
2022/09/17 00:46:39;;;;;;;5.95;1.58;;;;;;;10.14;88.26;101385.81;5057045;28;20045;-73
2022/09/17 00:49:17;;;;;;;6.60;1.40;;;;;;;10.11;87.96;101386.66;5074675;28;20041;-74
2022/09/17 00:52:09;;;;;;;8.45;1.85;;;;;;;10.10;88.25;101390.47;5074098;28;20047;-73
2022/09/17 00:54:39;;;;;;;7.80;1.23;;;;;;;10.10;87.90;101395.06;5068867;28;20139;-73
2022/09/17 00:57:05;;;;;;;10.23;1.63;;;;;;;10.08;88.10;101397.38;5073499;28;20041;-73
2022/09/17 00:59:32;;;;;;;12.63;1.67;;;;;;;10.08;87.63;101397.38;5073068;28;20041;-73
2022/09/17 01:01:58;;;;;;;9.52;1.65;;;;;;;10.07;87.83;101399.31;5072978;28;20112;-74
2022/09/17 01:04:26;;;;;;;7.03;1.40;;;;;;;10.04;88.22;101386.84;5074269;28;20052;-74
2022/09/17 01:07:08;;;;;;;15.00;1.50;;;;;;;10.00;87.92;101392.25;5074161;28;20421;-74
2022/09/17 01:09:53;;;;;;;6.25;1.63;;;;;;;9.99;87.73;101388.13;5074403;28;20139;-73
2022/09/17 01:12:49;;;;;;;7.15;1.52;;;;;;;9.98;87.57;101391.94;5074778;28;20124;-73
2022/09/17 01:15:34;;;;;;;11.40;1.52;;;;;;;9.98;87.46;101383.97;5072158;28;20049;-73
2022/09/17 01:18:17;;;;;;;9.05;1.63;;;;;;;9.99;87.43;101390.78;5074081;28;20049;-74
2022/09/17 01:21:21;;;;;;;8.70;1.83;;;;;;;9.98;86.92;101383.22;5072052;28;20053;-73
2022/09/17 01:23:53;;;;;;;10.00;1.50;;;;;;;9.97;87.22;101397.69;5074030;28;20519;-73
2022/09/17 01:26:38;;;;;;;10.73;1.40;;;;;;;9.94;86.87;101401.94;5074343;28;20128;-73
2022/09/17 01:29:21;;;;;;;4.90;1.05;;;;;;;9.90;87.43;101401.25;5073948;28;20051;-73
2022/09/17 01:31:56;;;;;;;7.18;1.40;;;;;;;9.88;87.28;101394.88;5074376;28;20171;-73
2022/09/17 01:34:38;;;;;;;8.05;1.08;;;;;;;9.86;87.13;101397.19;5074071;28;20049;-73
2022/09/17 01:37:16;;;;;;;6.93;1.48;;;;;;;9.81;87.76;101406.41;5072403;28;20064;-73
2022/09/17 01:40:03;;;;;;;8.35;1.38;;;;;;;9.80;87.78;101410.25;5073996;28;20037;-73
2022/09/17 01:42:53;;;;;;;10.13;1.48;;;;;;;9.78;87.41;101404.59;5074318;28;20579;-73
2022/09/17 01:45:41;;;;;;;6.15;1.15;;;;;;;9.80;87.65;101409.50;5074128;28;20111;-73
2022/09/17 01:48:16;;;;;;;10.80;1.20;;;;;;;9.80;86.68;101412.91;5073129;28;20049;-73
2022/09/17 01:50:56;;;;;;;9.38;1.38;;;;;;;9.84;86.56;101416.22;5073603;28;20041;-73
2022/09/17 01:53:29;;;;;;;5.78;1.20;;;;;;;9.87;85.64;101409.31;5074136;28;20055;-73
2022/09/17 01:55:58;;;;;;;5.68;1.15;;;;;;;9.88;85.90;101416.88;5073749;28;20049;-73
2022/09/17 01:58:39;;;;;;;12.90;1.83;;;;;;;9.89;85.74;101413.06;5073510;28;20488;-73
2022/09/17 02:01:09;;;;;;;8.68;1.13;;;;;;;9.92;85.22;101409.56;5073649;28;20468;-73
2022/09/17 02:03:48;;;;;;;6.38;0.90;;;;;;;9.95;84.76;101405.34;5073173;28;20045;-73
2022/09/17 02:06:19;;;;;;;7.15;1.15;;;;;;;9.96;84.28;101417.47;5073094;28;20469;-73
2022/09/17 02:08:53;;;;;;;5.03;1.00;;;;;;;9.95;84.50;101408.00;5073214;28;20052;-73
2022/09/17 02:11:21;;;;;;;7.68;0.90;;;;;;;9.93;84.20;101423.63;5073727;28;20080;-72
2022/09/17 02:13:57;;;;;;;5.95;1.10;;;;;;;9.90;84.63;101419.88;5073541;28;20505;-73
2022/09/17 02:16:26;;;;;;;8.80;1.25;;;;;;;9.86;84.57;101427.19;5073709;28;20051;-73
2022/09/17 02:19:09;;;;;;;9.68;1.40;;;;;;;9.83;84.59;101422.72;5070984;28;20045;-72
2022/09/17 02:21:57;;;;;;;8.18;1.50;;;;;;;9.79;84.67;101424.69;5054844;28;20178;-72
2022/09/17 02:24:36;;;;;;;6.25;1.48;;;;;;;9.78;84.53;101427.78;5073538;28;20083;-73
2022/09/17 02:27:10;;;;;;;6.25;1.35;;;;;;;9.73;84.75;101428.28;5072055;28;20045;-72
2022/09/17 02:29:41;;;;;;;6.43;1.33;;;;;;;9.69;84.85;101420.38;5073183;28;20561;-72
2022/09/17 02:32:08;;;;;;;6.40;1.30;;;;;;;9.65;85.22;101423.13;5072857;28;20486;-72
2022/09/17 02:34:35;;;;;;;9.50;0.98;;;;;;;9.60;85.24;101418.31;5072880;28;20577;-72
2022/09/17 02:37:03;;;;;;;3.90;1.10;;;;;;;9.57;84.90;101419.16;5071587;28;20044;-72
2022/09/17 02:39:30;;;;;;;5.78;1.05;;;;;;;9.54;84.86;101414.66;5072933;28;20485;-72
2022/09/17 02:42:24;;;;;;;8.27;1.10;;;;;;;9.52;84.85;101424.97;5071155;28;20049;-73
2022/09/17 02:44:58;;;;;;;2.20;0.90;;;;;;;9.52;84.86;101426.88;5071325;28;20156;-72
2022/09/17 02:47:34;;;;;;;11.30;1.30;;;;;;;9.49;84.60;101425.03;5071053;28;20072;-73
2022/09/17 02:50:17;;;;;;;4.13;1.30;;;;;;;9.45;84.99;101435.75;5071239;28;20049;-72
2022/09/17 02:53:00;;;;;;;8.63;0.90;;;;;;;9.43;85.42;101435.41;5072821;28;20071;-72
2022/09/17 02:56:05;;;;;;;5.25;1.23;;;;;;;9.39;85.40;101431.34;5072959;28;20039;-72
2022/09/17 02:58:48;;;;;;;7.38;1.20;;;;;;;9.36;85.60;101435.56;5072406;28;20116;-72
2022/09/17 03:01:31;;;;;;;7.15;1.17;;;;;;;9.32;85.70;101438.31;5072042;28;20053;-74
2022/09/17 03:04:01;;;;;;;9.82;1.02;;;;;;;9.30;86.07;101431.91;5072813;28;20479;-74
2022/09/17 03:06:28;;;;;;;5.75;1.38;;;;;;;9.30;86.42;101439.88;5072658;28;20045;-74
2022/09/17 03:08:56;;;;;;;6.05;1.25;;;;;;;9.26;86.25;101441.88;5072092;28;20045;-74
2022/09/17 03:11:23;;;;;;;11.63;1.30;;;;;;;9.24;86.45;101444.19;5072622;28;20045;-74
2022/09/17 03:13:49;;;;;;;6.53;1.00;;;;;;;9.23;86.81;101442.69;5072380;28;20049;-74
2022/09/17 03:16:15;;;;;;;5.80;1.45;;;;;;;9.21;86.95;101435.13;5071895;28;20165;-75
2022/09/17 03:18:42;;;;;;;3.90;1.13;;;;;;;9.21;87.39;101434.38;5071311;28;20069;-75
2022/09/17 03:21:09;;;;;;;6.28;1.30;;;;;;;9.21;87.22;101424.50;5072217;28;20049;-75
2022/09/17 03:23:35;;;;;;;11.85;1.20;;;;;;;9.22;87.63;101430.56;5072168;28;20144;-75
2022/09/17 03:26:02;;;;;;;9.88;1.30;;;;;;;9.25;87.08;101435.81;5072127;28;20132;-75
2022/09/17 03:28:28;;;;;;;8.00;1.33;;;;;;;9.26;87.01;101426.66;5072555;28;20111;-74
2022/09/17 03:30:55;;;;;;;13.32;1.33;;;;;;;9.28;87.31;101428.91;5071383;28;20051;-74
2022/09/17 03:33:21;;;;;;;2.72;0.90;;;;;;;9.27;87.21;101424.75;5072315;28;20116;-72
2022/09/17 03:35:48;;;;;;;3.67;1.02;;;;;;;9.26;87.56;101420.63;5072286;28;20504;-72
2022/09/17 03:38:15;;;;;;;5.25;1.10;;;;;;;9.26;87.52;101423.28;5053650;28;20045;-73
2022/09/17 03:40:41;;;;;;;5.82;1.38;;;;;;;9.22;87.75;101422.59;5071217;28;20053;-72
2022/09/17 03:43:08;;;;;;;12.65;1.40;;;;;;;9.19;87.79;101420.78;5072137;28;20049;-72
2022/09/17 03:45:34;;;;;;;10.73;1.30;;;;;;;9.19;87.91;101426.09;5070036;28;20107;-72
2022/09/17 03:48:01;;;;;;;4.82;1.00;;;;;;;9.18;87.89;101429.91;5071871;28;20508;-72
2022/09/17 03:50:27;;;;;;;11.95;1.35;;;;;;;9.16;87.83;101424.28;5072350;28;20136;-72
2022/09/17 03:52:54;;;;;;;6.75;1.27;;;;;;;9.14;88.35;101426.59;5071463;28;20037;-72
2022/09/17 03:55:20;;;;;;;5.90;1.25;;;;;;;9.12;87.90;101440.28;5072059;28;20037;-72
2022/09/17 03:57:46;;;;;;;9.63;1.80;;;;;;;9.10;88.61;101437.28;5071595;28;20052;-72
2022/09/17 04:00:16;;;;;;;8.68;1.30;;;;;;;9.09;88.62;101441.09;5071430;28;20049;-72
2022/09/17 04:02:42;;;;;;;12.63;1.35;;;;;;;9.09;89.05;101443.00;5071701;28;20049;-72
2022/09/17 04:05:09;;;;;;;10.02;1.08;;;;;;;9.07;88.77;101440.75;5071998;28;20068;-72
2022/09/17 04:07:36;;;;;;;8.75;1.80;;;;;;;9.10;89.07;101452.47;5071387;28;20120;-72
2022/09/17 04:10:04;;;;;;;8.95;1.48;;;;;;;9.12;89.14;101455.47;5070546;28;20138;-72
2022/09/17 04:12:30;;;;;;;10.13;1.50;;;;;;;9.14;88.63;101453.91;5071598;28;20941;-72
2022/09/17 04:14:57;;;;;;;7.20;1.50;;;;;;;9.13;88.86;101457.72;5071095;28;20049;-72
2022/09/17 04:17:23;;;;;;;9.43;1.45;;;;;;;9.14;88.36;101448.59;5071939;28;20091;-72
2022/09/17 04:19:50;;;;;;;10.63;1.02;;;;;;;9.17;87.83;101439.06;5071444;28;20622;-72
2022/09/17 04:22:16;;;;;;;4.03;1.08;;;;;;;9.18;87.52;101441.28;5071431;28;20077;-74
2022/09/17 04:24:43;;;;;;;4.47;1.35;;;;;;;9.21;86.79;101445.75;5071446;28;20051;-72
2022/09/17 04:27:09;;;;;;;4.07;0.95;;;;;;;9.25;86.55;101451.00;5070971;28;20045;-72
2022/09/17 04:29:35;;;;;;;7.32;1.17;;;;;;;9.27;86.60;101448.69;5070632;28;20532;-72
2022/09/17 04:32:02;;;;;;;7.22;1.05;;;;;;;9.27;86.21;101448.69;5075021;28;20061;-71
2022/09/17 04:34:29;;;;;;;4.05;0.98;;;;;;;9.27;85.88;101454.00;5073646;28;20053;-72
2022/09/17 04:36:55;;;;;;;4.18;0.93;;;;;;;9.25;85.78;101456.31;5074755;28;20041;-71
2022/09/17 04:39:22;;;;;;;5.78;1.27;;;;;;;9.23;85.64;101450.66;5075269;28;20041;-72
2022/09/17 04:41:48;;;;;;;9.07;1.33;;;;;;;9.22;85.76;101451.81;5073997;28;20064;-72
2022/09/17 04:44:15;;;;;;;9.23;1.15;;;;;;;9.18;85.46;101443.94;5056817;28;20508;-72
2022/09/17 04:46:41;;;;;;;3.10;1.00;;;;;;;9.18;85.09;101448.50;5074466;28;20045;-74
2022/09/17 04:49:07;;;;;;;3.08;1.08;;;;;;;9.14;85.95;101451.25;5074663;28;20045;-72
2022/09/17 04:51:34;;;;;;;5.57;1.17;;;;;;;9.11;85.25;101457.38;5074650;28;20588;-72
2022/09/17 04:54:00;;;;;;;4.40;0.90;;;;;;;9.08;85.63;101454.78;5074532;28;20037;-71
2022/09/17 04:56:27;;;;;;;5.63;0.93;;;;;;;9.04;85.34;101457.53;5056371;28;20040;-73
2022/09/17 04:58:53;;;;;;;4.30;0.80;;;;;;;9.03;85.87;101461.34;5074257;28;20183;-72
2022/09/17 05:01:19;;;;;;;3.78;0.90;;;;;;;8.99;86.08;101452.69;5074758;28;20135;-72
2022/09/17 05:03:46;;;;;;;5.90;0.93;;;;;;;8.95;86.42;101449.34;5074064;28;20108;-72
2022/09/17 05:06:12;;;;;;;4.32;0.73;;;;;;;8.90;86.51;101455.16;5074389;28;20122;-72
2022/09/17 05:08:39;;;;;;;6.97;1.00;;;;;;;8.86;86.63;101454.47;5074254;28;20052;-72
2022/09/17 05:11:05;;;;;;;3.63;0.80;;;;;;;8.82;86.35;101448.47;5073613;28;20557;-71
2022/09/17 05:13:32;;;;;;;7.15;1.17;;;;;;;8.78;86.83;101451.22;5074093;28;20052;-71
2022/09/17 05:15:58;;;;;;;5.78;0.80;;;;;;;8.76;86.68;101450.88;5073953;28;20132;-72
2022/09/17 05:18:25;;;;;;;3.22;0.68;;;;;;;8.75;86.18;101460.00;5073875;28;20221;-72
2022/09/17 05:20:51;;;;;;;6.30;0.70;;;;;;;8.76;85.62;101466.06;5073292;28;20041;-72
2022/09/17 05:23:19;;;;;;;3.42;1.10;;;;;;;8.76;86.04;101460.75;5072983;28;20077;-71
2022/09/17 05:25:45;;;;;;;3.78;0.80;;;;;;;8.80;85.40;101467.47;5055968;28;20036;-72
2022/09/17 05:28:11;;;;;;;4.30;1.17;;;;;;;8.83;85.43;101464.00;5074842;28;20565;-72
2022/09/17 05:30:38;;;;;;;6.03;0.82;;;;;;;8.84;85.01;101475.38;5073917;28;20124;-72
2022/09/17 05:33:06;;;;;;;5.30;1.35;;;;;;;8.86;85.04;101473.03;5073781;28;20041;-72
2022/09/17 05:35:34;;;;;;;6.07;1.05;;;;;;;8.88;84.59;101476.78;5073617;28;20147;-72
2022/09/17 05:38:04;;;;;;;6.30;0.80;;;;;;;8.91;84.85;101477.88;5073583;28;20505;-72
2022/09/17 05:40:31;;;;;;;3.78;0.55;;;;;;;8.90;84.86;101476.38;5073006;28;20144;-73
2022/09/17 05:43:04;;;;;;;1.80;0.85;;;;;;;8.91;84.80;101480.53;5073983;28;20040;-72
2022/09/17 05:45:32;;;;;;;3.85;0.95;;;;;;;8.89;85.03;101480.94;5074269;28;20116;-71
2022/09/17 05:48:00;;;;;;;2.80;0.70;;;;;;;8.91;85.27;101483.19;5074386;28;20128;-73
2022/09/17 05:50:28;;;;;;;6.82;0.70;;;;;;;8.97;85.28;101490.28;5074331;28;20481;-71
2022/09/17 05:52:55;;;;;;;4.68;1.08;;;;;;;9.14;84.50;101500.97;5074118;28;20490;-70
2022/09/17 05:55:22;;;;;;;7.80;1.10;;;;;;;9.33;85.40;101506.22;5073846;28;20137;-72
2022/09/17 05:57:49;;;;;;;9.38;0.68;;;;;;;9.41;85.80;101508.75;5073849;28;20049;-72
2022/09/17 06:00:16;;;;;;;4.57;0.80;;;;;;;9.36;85.66;101499.34;5074005;28;20049;-71
2022/09/17 06:02:43;;;;;;;2.08;0.77;;;;;;;9.33;86.42;101500.91;5074013;28;20064;-73
2022/09/17 06:05:10;;;;;;;4.32;0.98;;;;;;;9.30;86.85;101491.13;5074102;28;20049;-74
2022/09/17 06:07:37;;;;;;;1.98;0.57;;;;;;;9.29;87.62;101494.94;5073805;28;20120;-72
2022/09/17 06:10:05;;;;;;;5.00;0.68;;;;;;;9.33;87.73;101490.28;5073624;28;20047;-74
2022/09/17 06:12:34;;;;;;;5.50;0.80;;;;;;;9.37;87.85;101498.19;5073247;28;20067;-74
2022/09/17 06:15:02;;;;;;;6.32;1.25;;;;;;;9.46;88.15;101503.69;5072643;28;20127;-73
2022/09/17 06:17:33;;;;;;;3.63;0.73;;;;;;;9.56;87.53;101494.75;5074023;28;20068;-73
2022/09/17 06:20:00;;;;;;;3.97;1.00;;;;;;;10.48;86.28;101501.69;5074026;28;20037;-74
2022/09/17 06:22:26;;;;;;;4.55;0.93;;;;;;;12.14;79.61;101504.06;5072360;28;20052;-73
2022/09/17 06:24:52;;;;;;;3.45;0.93;;;;;;;12.88;75.74;101513.38;5072748;28;20115;-72
2022/09/17 06:27:19;;;;;;;3.72;0.68;;;;;;;13.07;73.92;101514.25;5073874;28;20047;-72
2022/09/17 06:29:45;;;;;;;7.20;1.10;;;;;;;12.59;74.42;101510.97;5073532;28;20037;-75
2022/09/17 06:32:14;;;;;;;3.67;0.98;;;;;;;12.71;74.52;101509.44;5073596;28;20053;-72
2022/09/17 06:34:40;;;;;;;3.92;0.75;;;;;;;12.91;74.13;101515.94;5073238;28;20494;-72
2022/09/17 06:37:07;;;;;;;6.05;0.90;;;;;;;13.01;74.14;101509.47;5072310;28;20041;-73
2022/09/17 06:39:33;;;;;;;4.85;0.82;;;;;;;12.79;73.58;101502.66;5072793;28;20120;-75
2022/09/17 06:42:00;;;;;;;4.22;0.80;;;;;;;12.38;75.81;101506.38;5071482;28;20625;-73
2022/09/17 06:44:27;;;;;;;3.63;1.08;;;;;;;12.16;75.78;101504.41;5072062;28;20123;-73
2022/09/17 06:46:53;;;;;;;3.80;0.60;;;;;;;12.19;77.29;101519.53;5072000;28;20552;-72
2022/09/17 06:49:20;;;;;;;6.70;1.15;;;;;;;12.22;76.44;101518.69;5071833;28;20501;-73
2022/09/17 06:51:47;;;;;;;4.15;0.90;;;;;;;12.10;77.15;101524.78;5054997;28;20072;-73
2022/09/17 06:54:13;;;;;;;5.50;1.02;;;;;;;12.11;77.85;101528.97;5072767;28;20060;-73
2022/09/17 06:56:40;;;;;;;1.70;0.80;;;;;;;12.10;77.40;101529.38;5072944;28;20466;-72
2022/09/17 06:59:06;;;;;;;9.55;1.02;;;;;;;12.08;76.94;101524.47;5073260;28;20133;-72
2022/09/17 07:01:32;;;;;;;8.52;1.73;;;;;;;12.08;77.19;101529.81;5071724;28;20466;-72
2022/09/17 07:03:59;;;;;;;4.70;1.27;;;;;;;12.19;78.43;101532.91;5073264;28;20132;-73
2022/09/17 07:06:25;;;;;;;8.23;1.20;;;;;;;12.33;77.42;101534.38;5071621;28;20144;-74
2022/09/17 07:08:52;;;;;;;2.63;0.98;;;;;;;12.50;76.90;101537.59;5054060;28;20489;-74
2022/09/17 07:11:18;;;;;;;6.63;1.17;;;;;;;12.68;76.64;101535.84;5054874;28;20152;-73
2022/09/17 07:13:45;;;;;;;6.78;1.15;;;;;;;12.85;76.35;101532.97;5072723;28;20041;-74
2022/09/17 07:16:11;;;;;;;4.40;0.90;;;;;;;12.85;74.32;101532.97;5073088;28;20048;-73
2022/09/17 07:18:39;;;;;;;3.35;1.00;;;;;;;12.81;74.71;101532.34;5072820;28;20535;-73
2022/09/17 07:21:06;;;;;;;4.20;0.98;;;;;;;12.83;75.88;101522.69;5072469;28;20045;-73
2022/09/17 07:23:34;;;;;;;6.20;1.23;;;;;;;12.93;74.77;101523.50;5072644;28;20079;-74
2022/09/17 07:26:04;;;;;;;6.20;1.00;;;;;;;12.86;73.93;101515.75;5072847;28;20041;-73
2022/09/17 07:28:31;;;;;;;5.00;1.00;;;;;;;12.92;75.00;101516.69;5072400;28;20041;-72
2022/09/17 07:31:01;;;;;;;3.05;1.00;;;;;;;12.98;74.02;101515.69;5072704;28;20068;-72
2022/09/17 07:33:27;;;;;;;3.63;0.85;;;;;;;13.02;73.96;101521.66;5070288;28;20079;-72
2022/09/17 07:35:56;;;;;;;5.45;1.20;;;;;;;13.11;74.09;101523.63;5071079;28;20041;-72
2022/09/17 07:38:24;;;;;;;4.38;1.65;;;;;;;13.19;72.65;101524.16;5087025;28;20127;-72
2022/09/17 07:40:54;;;;;;;4.20;0.77;;;;;;;13.20;72.90;101522.94;5089819;28;20345;-72
2022/09/17 07:43:20;;;;;;;4.03;0.95;;;;;;;13.30;73.05;101527.16;5091788;28;20162;-72
2022/09/17 07:45:47;;;;;;;6.60;1.33;;;;;;;13.40;73.29;101523.34;5091876;28;20119;-72
2022/09/17 07:48:13;;;;;;;5.57;0.80;;;;;;;13.47;72.12;101525.75;5073843;28;20123;-71
2022/09/17 07:50:39;;;;;;;3.92;0.75;;;;;;;13.50;71.44;101529.47;5091551;28;20131;-72
2022/09/17 07:53:06;;;;;;;7.85;0.95;;;;;;;13.65;71.10;101533.09;5073696;28;20048;-72
2022/09/17 07:55:32;;;;;;;4.13;1.00;;;;;;;13.72;70.77;101537.41;5091793;28;20051;-73
2022/09/17 07:57:59;;;;;;;4.53;0.75;;;;;;;13.79;70.34;101532.53;5092071;28;20049;-71
2022/09/17 08:00:25;;;;;;;5.13;0.93;;;;;;;13.67;69.23;101528.78;5092084;28;20047;-72
2022/09/17 08:02:55;;;;;;;4.03;0.88;;;;;;;13.46;70.05;101534.97;5073433;28;20128;-72
2022/09/17 08:05:23;;;;;;;3.40;1.00;;;;;;;13.30;70.33;101533.25;5092907;28;20094;-73
2022/09/17 08:07:51;;;;;;;1.90;0.70;;;;;;;13.24;70.97;101537.66;5094549;28;20135;-73
2022/09/17 08:10:21;;;;;;;6.30;0.77;;;;;;;13.46;70.02;101532.28;5095393;28;20115;-72
2022/09/17 08:12:48;;;;;;;1.55;0.60;;;;;;;13.77;69.53;101539.53;5095858;28;20048;-72
2022/09/17 08:15:16;;;;;;;3.30;0.80;;;;;;;14.11;68.87;101541.97;5095916;28;20062;-72
2022/09/17 08:17:43;;;;;;;3.17;0.70;;;;;;;14.42;67.87;101536.50;5095414;28;20041;-72
2022/09/17 08:20:11;;;;;;;2.28;0.70;;;;;;;14.41;64.90;101526.97;5093683;28;20464;-73
2022/09/17 08:22:37;;;;;;;3.42;0.60;;;;;;;14.38;65.23;101553.91;5076752;28;20124;-72
2022/09/17 08:25:05;;;;;;;2.15;0.60;;;;;;;14.38;63.13;101560.03;5096047;28;20048;-72
2022/09/17 08:27:32;;;;;;;6.78;0.98;;;;;;;14.07;65.89;101548.66;5094490;28;20040;-73
2022/09/17 08:29:59;;;;;;;2.72;0.70;;;;;;;13.84;68.96;101549.94;5095820;28;20110;-73
2022/09/17 08:32:28;;;;;;;3.92;0.60;;;;;;;13.64;68.84;101550.31;5077480;28;20514;-73
2022/09/17 08:34:54;;;;;;;4.30;0.70;;;;;;;13.43;71.37;101543.84;5076796;28;20124;-73
2022/09/17 08:37:25;;;;;;;2.75;1.05;;;;;;;13.41;73.32;101548.16;5095413;28;20045;-73
2022/09/17 08:39:51;;;;;;;4.13;0.90;;;;;;;13.61;73.63;101545.84;5094658;28;20076;-73
2022/09/17 08:42:31;;;;;;;3.83;0.90;;;;;;;13.73;71.64;101552.28;5095277;28;20438;-73
2022/09/17 08:45:01;;;;;;;4.05;0.82;;;;;;;13.78;71.00;101547.09;5096048;28;20131;-73
2022/09/17 08:47:35;;;;;;;1.42;0.55;;;;;;;14.07;71.04;101551.31;5077033;28;20493;-73
2022/09/17 08:50:05;;;;;;;2.95;0.77;;;;;;;13.97;70.84;101548.66;5077208;28;20144;-73
2022/09/17 08:52:58;;;;;;;1.00;0.50;;;;;;;13.98;71.34;101552.06;5095173;28;20123;-73
2022/09/17 08:55:33;;;;;;;1.05;0.73;;;;;;;14.09;69.26;101555.06;5095550;28;20572;-73
2022/09/17 08:58:27;;;;;;;1.58;0.50;;;;;;;14.33;68.86;101553.31;5095542;28;20475;-73
2022/09/17 09:01:18;;;;;;;3.13;0.73;;;;;;;14.46;69.33;101560.47;5094451;28;20052;-73
2022/09/17 09:03:50;;;;;;;5.35;0.90;;;;;;;14.58;66.74;101551.56;5094526;28;20512;-73
2022/09/17 09:06:20;;;;;;;4.20;0.75;;;;;;;14.64;65.57;101552.44;5094897;28;20076;-73
2022/09/17 09:08:55;;;;;;;3.08;0.65;;;;;;;14.67;66.11;101546.94;5094194;28;20037;-72
2022/09/17 09:11:26;;;;;;;2.20;0.40;;;;;;;14.91;63.50;101554.34;5094709;28;20044;-72
2022/09/17 09:13:59;;;;;;;4.43;0.95;;;;;;;15.09;63.22;101556.25;5093613;28;20040;-71
2022/09/17 09:16:31;;;;;;;3.10;0.70;;;;;;;15.07;64.63;101551.34;5093627;28;20123;-72
2022/09/17 09:19:16;;;;;;;5.65;0.80;;;;;;;15.06;63.67;101549.13;5076303;28;20044;-72
2022/09/17 09:21:58;;;;;;;1.40;0.77;;;;;;;15.06;61.81;101554.47;5094496;28;20127;-71
2022/09/17 09:24:31;;;;;;;4.13;0.63;;;;;;;15.14;62.93;101548.34;5093090;28;20127;-72
2022/09/17 09:27:16;;;;;;;2.47;1.02;;;;;;;15.21;61.41;101547.28;5094698;28;20041;-72
2022/09/17 09:30:03;;;;;;;3.40;0.90;;;;;;;15.52;63.18;101542.41;5094339;28;20075;-71
2022/09/17 09:32:55;;;;;;;6.50;0.82;;;;;;;15.45;62.06;101550.78;5092517;28;20394;-71
2022/09/17 09:35:23;;;;;;;2.90;1.00;;;;;;;15.34;63.04;101555.88;5094733;28;20044;-72
2022/09/17 09:38:00;;;;;;;5.55;0.82;;;;;;;15.20;62.50;101551.88;5076017;28;20347;-72
2022/09/17 09:40:43;;;;;;;4.95;0.90;;;;;;;15.27;64.10;101548.16;5094019;28;20047;-72
2022/09/17 09:43:23;;;;;;;4.00;0.80;;;;;;;15.78;62.80;101544.69;5094141;28;20072;-72
2022/09/17 09:46:48;;;;;;;4.47;0.88;;;;;;;15.73;63.02;101548.72;5093735;28;20051;-72
2022/09/17 09:49:49;;;;;;;4.13;1.02;;;;;;;15.49;63.97;101556.72;5094490;28;20052;-72
2022/09/17 09:52:55;;;;;;;2.67;0.77;;;;;;;15.39;63.96;101555.25;5094536;28;20040;-73
2022/09/17 09:55:46;;;;;;;3.42;0.95;;;;;;;15.20;63.10;101551.13;5050714;28;20076;-74
2022/09/17 09:58:25;;;;;;;1.70;0.70;;;;;;;15.10;65.77;101555.06;5043807;28;20083;-72
2022/09/17 10:00:51;;;;;;;4.70;0.95;;;;;;;14.92;66.73;101561.94;5050305;28;20111;-72
2022/09/17 10:03:32;;;;;;;2.75;1.00;;;;;;;14.58;68.59;101589.06;5035011;28;20494;-75
2022/09/17 10:06:02;;;;;;;10.98;1.40;;;;;;;14.16;74.06;101599.53;5051458;28;20222;-77
2022/09/17 10:08:31;;;;;;;6.22;1.00;;;;;;;13.80;76.47;101592.16;5034930;28;20052;-77
2022/09/17 10:11:10;;;;;;;2.90;0.82;;;;;;;13.71;77.28;101600.16;5051502;28;20049;-76
2022/09/17 10:13:36;;;;;;;7.10;0.93;;;;;;;13.64;77.59;101583.16;5050832;28;20063;-76
2022/09/17 10:16:19;;;;;;;1.60;0.73;;;;;;;13.90;77.66;101586.41;5050928;28;20567;-76
2022/09/17 10:18:48;;;;;;;3.25;0.80;;;;;;;14.16;76.27;101575.44;5049106;28;20058;-76
2022/09/17 10:21:22;;;;;;;1.73;0.68;;;;;;;14.21;77.70;101580.22;5050934;28;20121;-76
2022/09/17 10:23:49;;;;;;;3.35;1.08;;;;;;;14.21;76.95;101580.22;5034906;28;20571;-76
2022/09/17 10:26:23;;;;;;;6.60;1.00;;;;;;;14.44;76.30;101577.00;5051182;28;20140;-76
2022/09/17 10:28:52;;;;;;;3.53;0.77;;;;;;;14.71;77.19;101576.28;5050407;28;20142;-75
2022/09/17 10:31:19;;;;;;;4.13;0.98;;;;;;;15.10;77.17;101571.16;5036907;28;20057;-75
2022/09/17 10:33:52;;;;;;;6.28;0.85;;;;;;;15.38;76.21;101572.56;5073264;28;20124;-76
2022/09/17 10:36:41;;;;;;;5.32;1.10;;;;;;;15.35;75.91;101571.53;5055784;28;20049;-76
2022/09/17 10:39:43;;;;;;;1.88;0.73;;;;;;;15.39;74.89;101570.63;5073544;28;20591;-76
2022/09/17 10:42:16;;;;;;;2.25;0.82;;;;;;;15.19;73.35;101573.81;5051970;28;20508;-76
2022/09/17 10:44:51;;;;;;;5.97;1.38;;;;;;;15.17;71.79;101568.16;5052964;28;20502;-77
2022/09/17 10:47:28;;;;;;;3.97;1.20;;;;;;;15.20;71.25;101556.50;5053411;28;20052;-76
2022/09/17 10:50:01;;;;;;;6.07;1.20;;;;;;;15.06;69.96;101560.59;5052922;28;20132;-75
2022/09/17 10:52:33;;;;;;;5.13;1.30;;;;;;;14.85;71.07;101548.84;5053139;28;20411;-73
2022/09/17 10:55:08;;;;;;;;;;;;;;;14.92;72.16;101548.53;5053543;28;20052;-76
2022/09/17 10:57:54;;;;;;;3.22;1.38;;;;;;;15.14;72.05;101556.41;5053120;28;20384;-73
2022/09/17 11:00:22;;;;;;;3.35;0.80;;;;;;;15.24;71.99;101544.44;5052533;28;20107;-74
2022/09/17 11:03:07;;;;;;;3.67;1.00;;;;;;;15.22;67.01;101538.78;5051254;28;20057;-73
2022/09/17 11:06:10;;;;;;;4.90;1.10;;;;;;;15.13;67.33;101527.34;5051203;28;20060;-74
2022/09/17 11:08:54;;;;;;;5.97;1.10;;;;;;;15.05;67.44;101529.59;5052487;28;20406;-75
2022/09/17 11:11:40;;;;;;;3.67;1.05;;;;;;;15.10;67.64;101533.63;5053129;28;20038;-74
2022/09/17 11:14:36;;;;;;;6.15;1.13;;;;;;;15.30;68.68;101521.16;5052651;28;20625;-73
2022/09/17 11:17:31;;;;;;;5.30;1.10;;;;;;;15.25;64.79;101524.47;5052623;28;20156;-74
2022/09/17 11:20:14;;;;;;;7.50;1.50;;;;;;;15.38;66.76;101521.59;5053014;28;20120;-74
2022/09/17 11:23:21;;;;;;;4.85;1.50;;;;;;;15.59;65.70;101519.91;5052393;28;20045;-74
2022/09/17 11:26:12;;;;;;;13.35;2.58;;;;;;;15.55;62.87;101513.91;5050935;28;20520;-74
2022/09/17 11:29:16;;;;;;;6.43;1.02;;;;;;;15.63;63.85;101515.09;5052111;28;20060;-73
2022/09/17 11:32:00;;;;;;;3.40;0.95;;;;;;;15.81;63.32;101522.31;5052252;28;20088;-73
2022/09/17 11:34:41;;;;;;;7.20;1.70;;;;;;;15.71;61.18;101516.22;5052531;28;20038;-73
2022/09/17 11:37:27;;;;;;;3.22;1.08;;;;;;;15.79;60.21;101520.06;5052901;28;20116;-73
2022/09/17 11:40:05;;;;;;;7.50;1.40;;;;;;;15.84;59.40;101510.66;5050439;28;20038;-74
2022/09/17 11:42:52;;;;;;;6.47;1.70;;;;;;;15.82;58.16;101513.03;5069755;28;20421;-74
2022/09/17 11:45:31;;;;;;;10.50;1.77;;;;;;;15.59;58.47;101520.63;5072707;28;20132;-74
2022/09/17 11:48:05;;;;;;;4.32;0.98;;;;;;;15.38;56.81;101518.16;5072361;28;20049;-74
2022/09/17 11:50:35;;;;;;;12.55;1.38;;;;;;;15.19;55.59;101515.56;5072286;28;20045;-73
2022/09/17 11:53:14;;;;;;;8.80;1.73;;;;;;;15.10;56.22;101520.19;5072318;28;20512;-73
2022/09/17 11:56:01;;;;;;;4.97;1.33;;;;;;;15.34;57.17;101515.63;5072110;28;20047;-73